Christchurch, New Zealand

4:17 PM NZDT on November 27, 2014 (GMT +1300)
Christchurch International | Change Station
CLOSE
Current Station
Airport
Location: Christchurch,
Elevation: 125 ft
Nearby Weather Stations

Elev 125 ft 43.48 °S, 172.55 °E | Updated 17 minutes ago

Clear
Clear
73 °F
Feels Like 73 °F
N
23
Wind Variable Wind from NW
Gusts 36 mph

Today
High -- | Low -- °F
--% Chance of Precip.
Yesterday
High -- | Low -- °F
Precip. -- in
5:46 AM 8:48 PM
Waxing Crescent, 25% visible
Pressure 29.44 in
Visibility 6.2 miles
Clouds
Dew Point 34 °F
Humidity 23%
Rainfall 0.00 in
Snow Depth Not available.
UV Not available.
Pollen Not available.
Air Quality Not available.
Flu Activity Not available.
METAR NZCH 270300Z AUTO 31020G31KT 280V340 9999 NCD 23/01 Q0997 NOSIG

More Conditions Fewer Conditions

Pressure 29.44 in
Visibility 6.2 miles
Clouds
Dew Point 34 °F
Humidity 23%
Rainfall 0.00 in
Snow Depth Not available.
UV Not available.
Pollen Not available.
Air Quality Not available.
Flu Activity Not available.
METAR NZCH 270300Z AUTO 31020G31KT 280V340 9999 NCD 23/01 Q0997 NOSIG

More Conditions Fewer Conditions

10-Day Weather Forecast

Almanac

Astronomy

Nov. 27, 2014 Rise Set
Actual Time
Civil Twilight
Nautical Twilight
Astronomical Twilight
Moon
Length of Visible Light
Length of Day
Tomorrow will be .
, % of the Moon is Illuminated

Today's Extremes

Country Highs Country Lows

Community

WunderPhotos

Upload Photos

1,773,949 photos uploaded!

WunderBlogs® & News

Nearby

Air Quality

  Air Quality AQ Index Pollutant
Not available.

Snow Depth

Station Depth Elevation

Earthquake Activity

City Distance Mag. Time & Date
Minimum magnitude displayed is 2.5.

Coastal Water Temperatures

Place Temperature

Nearby Weather Stations